createdAt,value
2022-10-12T00:02:25.574Z,5.80
2022-10-12T00:04:52.585Z,5.65
2022-10-12T00:07:19.588Z,6.25
2022-10-12T00:09:46.481Z,5.88
2022-10-12T00:12:13.508Z,5.32
2022-10-12T00:14:40.969Z,5.85
2022-10-12T00:17:07.901Z,5.28
2022-10-12T00:19:34.952Z,5.97
2022-10-12T00:22:02.261Z,5.55
2022-10-12T00:24:29.233Z,6.30
2022-10-12T00:26:56.142Z,6.53
2022-10-12T00:29:23.199Z,6.93
2022-10-12T00:31:50.106Z,6.15
2022-10-12T00:34:16.967Z,6.53
2022-10-12T00:36:44.125Z,6.93
2022-10-12T00:39:11.736Z,7.68
2022-10-12T00:41:42.279Z,6.65
2022-10-12T00:44:38.945Z,7.35
2022-10-12T00:47:17.641Z,6.82
2022-10-12T00:49:51.273Z,6.93
2022-10-12T00:52:22.793Z,6.57
2022-10-12T00:54:53.764Z,6.93
2022-10-12T00:57:21.835Z,7.53
2022-10-12T00:59:57.971Z,7.30
2022-10-12T01:02:28.251Z,6.65
2022-10-12T01:04:56.050Z,7.32
2022-10-12T01:07:23.133Z,6.82
2022-10-12T01:09:50.835Z,7.35
2022-10-12T01:12:19.058Z,6.47
2022-10-12T01:14:46.323Z,6.68
2022-10-12T01:17:22.836Z,7.00
2022-10-12T01:19:52.657Z,7.35
2022-10-12T01:22:23.490Z,6.22
2022-10-12T01:24:51.925Z,7.45
2022-10-12T01:27:45.723Z,7.40
2022-10-12T01:30:24.369Z,7.32
2022-10-12T01:33:06.268Z,7.53
2022-10-12T01:35:39.265Z,6.38
2022-10-12T01:38:19.282Z,7.53
2022-10-12T01:41:09.642Z,7.53
2022-10-12T01:43:39.583Z,7.00
2022-10-12T01:46:13.548Z,7.97
2022-10-12T01:48:41.073Z,7.35
2022-10-12T01:51:11.121Z,7.30
2022-10-12T01:54:06.050Z,6.43
2022-10-12T01:56:48.393Z,6.80
2022-10-12T01:59:42.822Z,7.30
2022-10-12T02:02:23.740Z,5.95
2022-10-12T02:05:02.768Z,6.60
2022-10-12T02:07:43.095Z,6.32
2022-10-12T02:10:18.564Z,6.95
2022-10-12T02:12:48.310Z,6.65
2022-10-12T02:15:17.226Z,6.38
2022-10-12T02:17:48.282Z,6.35
2022-10-12T02:20:18.554Z,6.05
2022-10-12T02:22:50.612Z,6.18
2022-10-12T02:25:20.861Z,6.72
2022-10-12T02:27:59.677Z,6.70
2022-10-12T02:30:27.382Z,6.57
2022-10-12T02:33:18.801Z,7.07
2022-10-12T02:35:52.611Z,6.20
2022-10-12T02:38:43.487Z,6.20
2022-10-12T02:41:19.903Z,5.97
2022-10-12T02:44:10.355Z,5.80
2022-10-12T02:46:39.350Z,6.75
2022-10-12T02:49:07.475Z,6.82
2022-10-12T02:51:35.935Z,7.20
2022-10-12T02:54:03.747Z,6.95
2022-10-12T02:56:30.644Z,6.70
2022-10-12T02:58:57.670Z,7.53
2022-10-12T03:01:24.837Z,6.28
2022-10-12T03:03:51.954Z,6.50
2022-10-12T03:06:20.375Z,6.60
2022-10-12T03:08:47.549Z,6.47
2022-10-12T03:11:14.890Z,7.00
2022-10-12T03:13:41.829Z,7.38
2022-10-12T03:16:11.119Z,6.82
2022-10-12T03:18:39.101Z,6.95
2022-10-12T03:21:06.706Z,6.93
2022-10-12T03:23:33.843Z,7.43
2022-10-12T03:26:00.899Z,6.32
2022-10-12T03:28:28.200Z,7.38
2022-10-12T03:30:55.293Z,7.55
2022-10-12T03:33:22.592Z,8.25
2022-10-12T03:35:50.088Z,9.43
2022-10-12T03:38:18.594Z,7.70
2022-10-12T03:40:46.921Z,7.00
2022-10-12T03:43:14.163Z,7.68
2022-10-12T03:45:41.171Z,8.13
2022-10-12T03:48:08.113Z,8.60
2022-10-12T03:50:35.930Z,8.23
2022-10-12T03:53:05.314Z,8.25
2022-10-12T03:55:33.173Z,8.18
2022-10-12T03:58:00.215Z,8.27
2022-10-12T04:00:28.293Z,7.93
2022-10-12T04:02:55.850Z,8.15
2022-10-12T04:05:23.420Z,8.63
2022-10-12T04:07:50.738Z,7.22
2022-10-12T04:10:17.703Z,8.07
2022-10-12T04:12:44.693Z,8.35
2022-10-12T04:15:11.950Z,8.18
2022-10-12T04:17:39.799Z,7.95
2022-10-12T04:20:08.105Z,9.10
2022-10-12T04:22:35.014Z,8.35
2022-10-12T04:25:01.963Z,8.27
2022-10-12T04:27:29.002Z,9.40
2022-10-12T04:29:55.990Z,9.63
2022-10-12T04:32:23.114Z,8.73
2022-10-12T04:34:50.062Z,8.85
2022-10-12T04:37:18.704Z,9.23
2022-10-12T04:40:18.169Z,8.55
2022-10-12T04:42:45.065Z,8.45
2022-10-12T04:45:11.964Z,8.48
2022-10-12T04:47:39.144Z,9.57
2022-10-12T04:50:12.980Z,9.27
2022-10-12T04:52:39.942Z,9.07
2022-10-12T04:55:07.651Z,9.65
2022-10-12T04:57:34.747Z,11.35
2022-10-12T05:00:01.797Z,12.77
2022-10-12T05:02:28.728Z,13.90
2022-10-12T05:04:55.780Z,14.40
2022-10-12T05:07:22.780Z,14.77
2022-10-12T05:09:49.729Z,15.52
2022-10-12T05:12:18.798Z,13.45
2022-10-12T05:14:45.928Z,11.52
2022-10-12T05:17:14.663Z,10.70
2022-10-12T05:19:41.706Z,10.48
2022-10-12T05:22:22.246Z,11.30
2022-10-12T05:24:53.808Z,10.38
2022-10-12T05:27:23.752Z,10.68
2022-10-12T05:29:50.681Z,10.48
2022-10-12T05:32:20.783Z,10.10
2022-10-12T05:34:56.842Z,9.68
2022-10-12T05:37:48.352Z,9.48
2022-10-12T05:40:23.198Z,10.02
2022-10-12T05:42:50.600Z,9.50
2022-10-12T05:52:47.046Z,8.52
2022-10-12T05:55:19.865Z,7.90
2022-10-12T05:57:51.643Z,9.20
2022-10-12T06:00:19.372Z,9.07
2022-10-12T06:02:46.869Z,9.50
2022-10-12T06:05:14.312Z,8.93
2022-10-12T06:07:41.438Z,9.32
2022-10-12T06:10:10.840Z,8.23
2022-10-12T06:12:38.128Z,7.90
2022-10-12T06:15:06.935Z,8.95
2022-10-12T06:17:39.165Z,10.77
2022-10-12T06:20:07.070Z,9.88
2022-10-12T06:22:34.637Z,10.02
2022-10-12T06:25:07.872Z,9.20
2022-10-12T06:31:35.816Z,8.88
2022-10-12T06:34:09.521Z,9.00
2022-10-12T06:36:57.141Z,8.93
2022-10-12T06:39:28.472Z,8.95
2022-10-12T06:42:10.854Z,8.57
2022-10-12T06:52:02.354Z,8.93
2022-10-12T06:58:45.640Z,9.05
2022-10-12T07:05:30.820Z,10.27
2022-10-12T07:08:43.667Z,10.23
2022-10-12T07:11:23.287Z,9.60
2022-10-12T07:14:05.995Z,10.25
2022-10-12T07:17:07.527Z,10.27
2022-10-12T07:19:46.859Z,10.10
2022-10-12T07:22:24.709Z,9.75
2022-10-12T07:24:52.125Z,9.90
2022-10-12T07:27:28.819Z,10.13
2022-10-12T07:30:11.969Z,10.07
2022-10-12T07:33:23.208Z,10.77
2022-10-12T07:36:35.602Z,9.90
2022-10-12T07:46:29.384Z,10.73
2022-10-12T08:12:14.168Z,8.93
2022-10-12T08:26:13.176Z,8.15
2022-10-12T08:38:13.221Z,7.10
2022-10-12T09:08:49.136Z,4.15
2022-10-12T09:11:48.560Z,4.43
2022-10-12T09:14:26.480Z,3.78
2022-10-12T09:16:56.753Z,4.38
2022-10-12T09:23:34.772Z,4.00
2022-10-12T09:26:18.457Z,3.70
2022-10-12T09:29:10.060Z,3.85
2022-10-12T09:35:59.097Z,4.13
2022-10-12T09:43:17.820Z,3.38
2022-10-12T10:05:12.923Z,2.80
2022-10-12T10:49:07.321Z,2.35
2022-10-12T10:51:49.685Z,2.30
2022-10-12T10:54:31.981Z,2.20
2022-10-12T10:57:25.502Z,2.30
2022-10-12T11:00:37.481Z,2.22
2022-10-12T11:02:57.079Z,2.15
2022-10-12T11:05:57.670Z,2.50
2022-10-12T11:08:31.213Z,2.75
2022-10-12T11:11:17.347Z,2.58
2022-10-12T11:14:16.585Z,2.10
2022-10-12T11:16:51.423Z,2.63
2022-10-12T11:19:45.370Z,2.38
2022-10-12T11:22:28.037Z,2.75
2022-10-12T11:25:24.020Z,2.35
2022-10-12T11:28:00.808Z,2.90
2022-10-12T11:30:48.754Z,2.83
2022-10-12T11:33:41.034Z,2.38
2022-10-12T11:36:20.783Z,2.30
2022-10-12T11:39:35.656Z,2.10
2022-10-12T11:42:30.784Z,2.55
2022-10-12T11:45:16.105Z,2.03
2022-10-12T11:48:33.774Z,2.10
2022-10-12T12:31:23.944Z,2.33
2022-10-12T12:34:19.410Z,2.17
2022-10-12T12:36:50.254Z,2.15
2022-10-12T12:39:38.910Z,2.28
2022-10-12T12:42:10.072Z,2.05
2022-10-12T12:44:46.666Z,2.00
2022-10-12T12:50:38.673Z,2.00
2022-10-12T12:53:24.407Z,2.45
2022-10-12T12:56:10.570Z,2.22
2022-10-12T12:59:04.642Z,1.75
2022-10-12T13:02:01.098Z,2.08
2022-10-12T13:04:49.155Z,1.60
2022-10-12T13:07:35.916Z,2.10
2022-10-12T13:10:32.016Z,2.58
2022-10-12T13:13:27.933Z,2.17
2022-10-12T13:16:57.318Z,2.13
2022-10-12T13:19:22.231Z,1.73
2022-10-12T13:21:56.554Z,2.67
2022-10-12T13:24:32.159Z,1.80
2022-10-12T13:27:52.964Z,1.50
2022-10-12T13:30:44.445Z,1.42
2022-10-12T13:33:41.776Z,1.77
2022-10-12T13:36:28.583Z,1.25
2022-10-12T13:39:11.317Z,1.35
2022-10-12T13:41:41.614Z,1.67
2022-10-12T13:44:30.301Z,2.55
2022-10-12T13:47:09.448Z,1.40
2022-10-12T13:49:44.049Z,1.98
2022-10-12T13:52:14.094Z,1.60
2022-10-12T13:54:50.274Z,1.60
2022-10-12T13:57:25.518Z,2.55
2022-10-12T14:01:09.331Z,1.67
2022-10-12T14:03:50.810Z,2.10
2022-10-12T14:06:30.947Z,1.65
2022-10-12T14:13:42.662Z,2.97
2022-10-12T14:16:15.233Z,2.08
2022-10-12T14:19:29.837Z,2.03
2022-10-12T14:25:56.019Z,2.28
2022-10-12T14:28:41.337Z,2.05
2022-10-12T14:31:19.273Z,2.00
2022-10-12T14:46:11.325Z,3.03
2022-10-12T14:49:22.867Z,3.03
2022-10-12T14:52:54.054Z,3.35
2022-10-12T14:55:41.617Z,3.03
2022-10-12T14:58:49.335Z,2.88
2022-10-12T15:01:56.313Z,3.08
2022-10-12T15:07:50.776Z,3.88
2022-10-12T15:10:33.267Z,3.55
2022-10-12T15:13:30.893Z,4.38
2022-10-12T15:17:00.721Z,3.03
2022-10-12T15:20:09.231Z,2.72
2022-10-12T15:23:12.917Z,3.30
2022-10-12T15:26:19.308Z,2.88
2022-10-12T15:29:05.378Z,4.05
2022-10-12T15:31:51.195Z,3.40
2022-10-12T15:35:23.263Z,3.35
2022-10-12T15:38:22.146Z,3.70
2022-10-12T15:44:09.088Z,3.80
2022-10-12T15:46:48.205Z,3.75
2022-10-12T15:49:56.760Z,4.15
2022-10-12T15:59:50.289Z,3.97
2022-10-12T16:02:45.674Z,4.05
2022-10-12T16:09:06.926Z,4.05
2022-10-12T16:15:12.357Z,4.20
2022-10-12T16:18:40.988Z,3.92
2022-10-12T16:21:27.321Z,3.40
2022-10-12T16:24:11.624Z,4.65
2022-10-12T16:26:59.229Z,3.20
2022-10-12T16:29:34.284Z,3.50
2022-10-12T16:32:36.055Z,4.32
2022-10-12T16:35:08.017Z,4.00
2022-10-12T16:37:39.868Z,4.55
2022-10-12T16:40:12.692Z,3.58
2022-10-12T16:42:55.258Z,3.55
2022-10-12T16:45:39.931Z,4.05
2022-10-12T16:48:08.756Z,3.47
2022-10-12T16:50:44.614Z,3.88
2022-10-12T16:53:30.885Z,3.35
2022-10-12T16:56:03.690Z,3.60
2022-10-12T16:58:33.433Z,4.65
2022-10-12T17:01:54.187Z,3.33
2022-10-12T17:04:18.527Z,3.95
2022-10-12T17:06:54.575Z,4.90
2022-10-12T17:09:22.466Z,4.45
2022-10-12T17:11:50.256Z,4.50
2022-10-12T17:14:55.989Z,4.07
2022-10-12T17:17:49.383Z,4.85
2022-10-12T17:20:24.063Z,4.53
2022-10-12T17:22:53.632Z,5.20
2022-10-12T17:25:21.324Z,4.97
2022-10-12T17:27:49.266Z,5.28
2022-10-12T17:30:27.608Z,5.70
2022-10-12T17:32:58.573Z,6.40
2022-10-12T17:35:36.647Z,6.68
2022-10-12T17:38:17.587Z,6.75
2022-10-12T17:40:52.185Z,6.15
2022-10-12T17:43:21.620Z,6.85
2022-10-12T17:45:52.098Z,6.85
2022-10-12T17:48:25.190Z,5.95
2022-10-12T17:51:14.992Z,4.93
2022-10-12T17:56:26.447Z,5.53
2022-10-12T17:58:55.589Z,5.80
2022-10-12T18:01:23.563Z,5.65
2022-10-12T18:03:51.751Z,5.50
2022-10-12T18:06:21.688Z,5.55
2022-10-12T18:08:50.277Z,5.15
2022-10-12T18:11:19.448Z,5.22
2022-10-12T18:13:48.474Z,6.05
2022-10-12T18:16:17.442Z,5.45
2022-10-12T18:18:44.792Z,6.38
2022-10-12T18:21:16.554Z,5.75
2022-10-12T18:23:43.491Z,6.25
2022-10-12T18:26:22.224Z,5.47
2022-10-12T18:28:50.507Z,4.90
2022-10-12T18:31:22.940Z,6.05
2022-10-12T18:33:50.345Z,6.45
2022-10-12T18:36:18.977Z,5.78
2022-10-12T18:38:46.161Z,6.47
2022-10-12T18:41:18.415Z,6.25
2022-10-12T18:43:45.425Z,6.65
2022-10-12T18:46:19.646Z,6.40
2022-10-12T18:48:49.344Z,6.72
2022-10-12T18:51:19.808Z,7.30
2022-10-12T18:53:46.839Z,7.75
2022-10-12T18:56:14.653Z,6.72
2022-10-12T18:58:42.296Z,7.35
2022-10-12T19:01:22.105Z,7.35
2022-10-12T19:03:51.331Z,8.55
2022-10-12T19:06:25.838Z,6.75
2022-10-12T19:09:06.219Z,7.50
2022-10-12T19:11:44.872Z,7.90
2022-10-12T19:14:17.517Z,8.55
2022-10-12T19:16:46.141Z,6.75
2022-10-12T19:19:21.463Z,6.90
2022-10-12T19:21:51.035Z,7.72
2022-10-12T19:24:21.168Z,7.28
2022-10-12T19:26:57.177Z,7.75
2022-10-12T19:29:29.047Z,7.40
2022-10-12T19:31:56.044Z,8.18
2022-10-12T19:34:23.813Z,8.50
2022-10-12T19:36:55.784Z,8.23
2022-10-12T19:39:24.055Z,8.65
2022-10-12T19:42:22.160Z,8.32
2022-10-12T19:45:05.297Z,7.75
2022-10-12T19:48:20.639Z,9.40
2022-10-12T19:51:01.871Z,9.52
2022-10-12T19:53:33.155Z,8.95
2022-10-12T19:59:13.824Z,9.23
2022-10-12T20:02:04.552Z,11.32
2022-10-12T20:05:05.383Z,11.55
2022-10-12T20:11:34.223Z,11.18
2022-10-12T20:14:18.367Z,12.82
2022-10-12T20:16:54.289Z,11.77
2022-10-12T20:19:28.796Z,13.32
2022-10-12T20:22:16.256Z,11.55
2022-10-12T20:29:11.381Z,11.18
2022-10-12T20:31:52.048Z,11.75
2022-10-12T20:34:22.243Z,11.93
2022-10-12T20:36:52.750Z,11.43
2022-10-12T20:39:20.464Z,11.57
2022-10-12T20:41:53.155Z,8.48
2022-10-12T20:44:25.778Z,9.93
2022-10-12T20:46:58.619Z,10.38
2022-10-12T20:49:43.648Z,10.23
2022-10-12T20:52:11.860Z,8.50
2022-10-12T20:54:42.496Z,8.73
2022-10-12T20:57:14.488Z,8.43
2022-10-12T20:59:45.857Z,10.52
2022-10-12T21:02:13.602Z,10.15
2022-10-12T21:04:44.308Z,13.20
2022-10-12T21:07:16.375Z,12.00
2022-10-12T21:09:44.282Z,12.43
2022-10-12T21:12:14.303Z,11.98
2022-10-12T21:14:42.112Z,11.25
2022-10-12T21:17:09.395Z,13.20
2022-10-12T21:19:36.751Z,11.43
2022-10-12T21:22:07.354Z,10.65
2022-10-12T21:24:37.952Z,12.20
2022-10-12T21:27:08.258Z,13.55
2022-10-12T21:29:35.616Z,15.30
2022-10-12T21:32:02.828Z,15.52
2022-10-12T21:34:33.167Z,14.13
2022-10-12T21:37:04.249Z,16.05
2022-10-12T21:39:31.547Z,13.73
2022-10-12T21:41:58.934Z,14.13
2022-10-12T21:44:26.344Z,13.07
2022-10-12T21:46:55.742Z,15.68
2022-10-12T21:49:25.403Z,15.77
2022-10-12T21:51:53.440Z,15.85
2022-10-12T21:54:20.776Z,16.40
2022-10-12T21:56:48.077Z,16.88
2022-10-12T21:59:16.405Z,14.43
2022-10-12T22:01:43.605Z,14.82
2022-10-12T22:04:15.567Z,13.45
2022-10-12T22:06:43.664Z,13.95
2022-10-12T22:09:16.659Z,14.30
2022-10-12T22:11:44.437Z,14.65
2022-10-12T22:14:17.402Z,15.43
2022-10-12T22:16:45.361Z,14.55
2022-10-12T22:19:19.038Z,17.10
2022-10-12T22:21:48.585Z,18.17
2022-10-12T22:24:16.028Z,17.58
2022-10-12T22:26:43.276Z,16.75
2022-10-12T22:29:10.770Z,17.48
2022-10-12T22:31:40.299Z,16.05
2022-10-12T22:34:08.269Z,16.40
2022-10-12T22:36:36.425Z,17.63
2022-10-12T22:39:04.426Z,16.45
2022-10-12T22:41:31.518Z,17.77
2022-10-12T22:43:58.561Z,17.15
2022-10-12T22:46:26.600Z,17.55
2022-10-12T22:48:54.528Z,17.33
2022-10-12T22:51:32.722Z,18.58
2022-10-12T22:54:00.436Z,17.95
2022-10-12T22:56:27.823Z,17.60
2022-10-12T22:59:02.327Z,17.05
2022-10-12T23:01:29.664Z,16.73
2022-10-12T23:03:56.992Z,16.52
2022-10-12T23:06:24.287Z,17.75
2022-10-12T23:08:53.673Z,15.77
2022-10-12T23:11:24.038Z,16.25
2022-10-12T23:13:51.514Z,14.98
2022-10-12T23:16:23.386Z,16.50
2022-10-12T23:18:59.011Z,14.85
2022-10-12T23:21:28.556Z,15.20
2022-10-12T23:23:55.686Z,15.30
2022-10-12T23:26:24.601Z,13.90
2022-10-12T23:28:52.052Z,14.38
2022-10-12T23:31:22.145Z,13.23
2022-10-12T23:34:00.272Z,13.93
2022-10-12T23:36:27.767Z,14.00
2022-10-12T23:38:54.743Z,13.60
2022-10-12T23:41:21.984Z,14.43
2022-10-12T23:43:49.369Z,14.07
2022-10-12T23:46:16.440Z,14.05
2022-10-12T23:48:43.566Z,15.10
2022-10-12T23:51:11.474Z,14.43
2022-10-12T23:53:38.995Z,14.70
2022-10-12T23:56:06.980Z,14.82
2022-10-12T23:58:35.019Z,11.35
